Latest Coastal Weather Observations for Cape Sorell

IDT60701

Issued at 3:42 am EDT Sunday 25 October 2020 (issued every 10 minutes, with the page automatically refreshed every 10 minutes)

About coastal observations | Map of coastal stations | Coastal observations for TAS | Marine services | Other Formats
Station Details ID: 097000 Name: CAPE SORELL Lat: -42.20 Lon: 145.17 Height: 19.3 m
Data from the previous 72 hours. | See also: Recent months at Cape Sorell
Date/Time
EDT
Wind Sea
Height
m
Swell Vis
km
Cloud Weather Temp
°C
Press
MSL
hPa
Rain since
9am
mm
Dir  Spd
kts
Gust
kts
Height
m
Period
s
Dir
25/03:30am SSE 7 11 - - - - - - - 5.3 1018.0 0.8
25/03:00am SSE 8 11 - - - - - - - 5.6 1017.5 0.4
25/02:30am SE 10 13 - - - - - - - 5.7 1017.1 0.4
25/02:00am SE 6 9 - - - - - - - 6.0 1016.7 0.4
25/01:30am SE 9 14 - - - - - - - 6.5 1016.6 0.4
25/01:20am S 16 24 - - - - - - - 7.3 1016.5 0.4
25/01:00am S 21 26 - - - - - - - 8.3 1015.9 0.4
25/12:30am S 24 30 - - - - - - - 8.3 1015.3 0.4
25/12:00am S 22 32 - - - - - - - 8.7 1015.0 0.4
 
Date/Time
EDT
Wind Sea
Height
m
Swell Vis
km
Cloud Weather Temp
°C
Press
MSL
hPa
Rain since
9am
mm
Dir  Spd
kts
Gust
kts
Height
m
Period
s
Dir
24/11:51pm S 21 32 - - - - - - - 8.6 1014.9 0.4
24/11:30pm SSW 22 28 - - - - - - - 8.4 1014.7 0.4
24/11:00pm SSW 23 28 - - - - - - - 8.6 1014.2 0.4
24/10:30pm SSW 24 29 - - - - - - - 8.7 1013.7 0.4
24/10:00pm SSW 21 26 - - - - - - - 8.5 1013.6 0.4
24/09:30pm SSW 26 30 - - - - - - - 8.4 1012.9 0.4
24/09:00pm SSW 30 35 - - - - - - - 8.4 1012.0 0.4
24/08:30pm SSW 28 35 - - - - - - - 9.1 1010.7 0.4
24/08:00pm SSW 27 31 - - - - - - - 9.5 1010.2 0.4
24/07:30pm SSW 24 29 - - - - - - - 9.6 1009.5 0.4
24/07:00pm SSW 23 27 - - - - - - - 9.4 1009.0 0.4
24/06:30pm SSW 24 28 - - - - - - - 9.3 1008.4 0.4
24/06:00pm SSW 25 33 - - - - - - Recent precip. 8.9 1007.7 0.4
24/05:42pm SW 16 26 - - - - - - - 9.2 1007.6 0.4
24/05:41pm SW 15 24 - - - - - - - 9.3 1007.8 0.4
24/05:30pm SW 18 26 - - - - - - - 8.7 1007.8 0.4
24/05:00pm SW 13 20 - - - - - - - 9.3 1007.3 0.2
24/04:30pm SW 21 29 - - - - - - - 8.7 1007.4 0.2
24/04:28pm SW 23 30 - - - - - - - 9.0 1007.3 0.0
24/04:13pm WSW 19 36 - - - - - - - 10.5 1006.4 0.0
24/04:12pm WSW 18 36 - - - - - - - 11.0 1006.3 0.0
24/04:11pm WSW 16 26 - - - - - - - 11.5 1006.9 0.0
24/04:00pm WSW 16 20 - - - - - - - 13.3 1006.9 0.0
24/03:30pm SW 13 15 - - - - - - - 12.9 1006.9 0.0
24/03:02pm WSW 15 28 - - - - - - - 11.9 1006.5 0.0
24/03:00pm WSW 13 17 - - - - - - - 12.3 1006.8 0.0
24/02:30pm WSW 15 19 - - - - - - - 13.7 1006.7 0.0
24/02:00pm WSW 14 17 - - - - - - - 13.4 1006.6 0.0
24/01:30pm WSW 16 19 - - - - - - - 13.8 1006.4 0.0
24/01:00pm SW 18 23 - - - - - - - 12.3 1006.2 0.0
24/12:30pm WSW 18 21 - - - - - - - 12.4 1006.1 0.0
24/12:00pm WSW 16 19 - - - - - - - 12.0 1006.0 0.0
24/11:30am SW 18 22 - - - - - - - 13.0 1005.8 0.0
24/11:00am SW 19 23 - - - - - - - 12.4 1005.5 0.0
24/10:30am SW 20 23 - - - - - - - 11.9 1005.4 0.0
24/10:00am SW 17 20 - - - - - - - 12.3 1005.3 0.0
24/09:30am SW 17 20 - - - - - - - 12.1 1005.3 0.0
24/09:00am SW 18 22 - - - - - - - 11.3 1005.1 0.0
24/08:30am SW 19 24 - - - - - - - 10.7 1004.8 0.0
24/08:00am SW 15 18 - - - - - - - 11.1 1004.7 0.0
24/07:30am SW 18 23 - - - - - - - 10.7 1004.3 0.0
24/07:00am SW 20 22 - - - - - - - 10.5 1004.1 0.0
24/06:30am SW 15 17 - - - - - - - 10.9 1003.9 0.0
24/06:00am SW 14 17 - - - - - - - 10.9 1003.8 0.0
24/05:30am SW 13 15 - - - - - - - 10.8 1003.7 0.0
24/05:00am SW 13 15 - - - - - - - 11.1 1003.7 0.0
24/04:30am SW 15 17 - - - - - - - 11.1 1003.8 0.0
24/04:00am SW 15 18 - - - - - - - 11.1 1003.8 0.0
24/03:30am SW 15 17 - - - - - - - 11.5 1003.7 0.0
24/03:00am SW 11 13 - - - - - - - 11.8 1003.8 0.0
24/02:30am SW 7 9 - - - - - - - 11.6 1004.2 0.0
24/02:00am WSW 6 8 - - - - - - - 11.9 1004.3 0.0
24/01:30am WSW 8 10 - - - - - - - 11.8 1004.6 0.0
24/01:00am WSW 10 11 - - - - - - - 11.8 1004.9 0.0
24/12:30am WSW 10 12 - - - - - - - 11.9 1005.1 0.0
24/12:00am WSW 10 11 - - - - - - - 11.8 1005.4 0.0
 
Date/Time
EDT
Wind Sea
Height
m
Swell Vis
km
Cloud Weather Temp
°C
Press
MSL
hPa
Rain since
9am
mm
Dir  Spd
kts
Gust
kts
Height
m
Period
s
Dir
23/11:30pm WSW 11 12 - - - - - - - 12.0 1005.5 0.0
23/11:00pm WSW 9 10 - - - - - - - 12.1 1005.7 0.0
23/10:30pm W 5 6 - - - - - - - 12.0 1005.9 0.0
23/10:00pm W 4 6 - - - - - - - 11.9 1006.1 0.0
23/09:30pm W 4 6 - - - - - - - 12.1 1006.1 0.0
23/09:00pm W 5 7 - - - - - - - 12.3 1006.0 0.0
23/08:30pm W 4 7 - - - - - - - 12.5 1006.0 0.0
23/08:00pm W 3 5 - - - - - - - 12.3 1005.9 0.0
23/07:30pm W 4 5 - - - - - - - 12.6 1005.8 0.0
23/07:00pm W 4 5 - - - - - - - 12.9 1005.6 0.0
23/06:30pm WSW 5 7 - - - - - - - 13.4 1005.7 0.0
23/06:00pm W 6 8 - - - - - - - 14.7 1005.8 0.0
23/05:30pm WNW 6 8 - - - - - - - 14.8 1005.9 0.0
23/05:00pm NW 3 5 - - - - - - - 15.0 1006.0 0.0
23/04:30pm NNW 2 4 - - - - - - - 14.6 1005.9 0.0
23/04:00pm WNW 2 3 - - - - - - - 15.2 1006.1 0.0
23/03:30pm N 2 2 - - - - - - - 13.8 1006.4 0.0
23/03:00pm N 1 2 - - - - - - - 13.7 1006.7 0.0
23/02:30pm N 2 3 - - - - - - - 13.5 1007.2 0.0
23/02:00pm WNW 4 5 - - - - - - - 13.4 1007.7 0.0
23/01:30pm WNW 5 7 - - - - - - - 13.0 1008.2 0.0
23/01:00pm NW 2 5 - - - - - - - 13.5 1008.4 0.0
23/12:30pm WNW 2 3 - - - - - - - 14.4 1008.6 0.0
23/12:00pm WNW 2 3 - - - - - - - 13.8 1009.0 0.0
23/11:30am N 1 2 - - - - - - - 13.2 1009.2 0.0
23/11:00am NNE 1 3 - - - - - - - 12.9 1009.3 0.0
23/10:30am SSW 1 2 - - - - - - - 13.3 1009.4 0.0
23/10:00am ESE 3 4 - - - - - - - 13.1 1009.5 0.0
23/09:30am E 6 8 - - - - - - - 12.4 1009.6 0.0
23/09:00am ENE 6 8 - - - - - - - 12.2 1010.0 0.0
23/08:30am ENE 7 8 - - - - - - - 11.6 1010.0 0.0
23/08:00am E 5 7 - - - - - - - 11.0 1010.4 0.0
23/07:30am ENE 4 6 - - - - - - - 10.6 1010.4 0.0
23/07:00am NE 3 4 - - - - - - - 10.7 1010.5 0.0
23/06:30am NNW 3 7 - - - - - - - 11.4 1010.6 0.0
23/06:00am ENE 2 3 - - - - - - - 11.0 1010.3 0.0
23/05:30am WNW 2 5 - - - - - - - 10.8 1010.3 0.0
23/05:00am WNW 3 4 - - - - - - - 10.2 1010.4 0.0
23/04:30am CALM 0 0 - - - - - - - 10.0 1010.5 0.0
23/04:00am SE 1 2 - - - - - - - 9.3 1010.5 0.0
23/03:30am E 5 6 - - - - - - - 9.3 1011.0 0.0
23/03:00am SE 2 2 - - - - - - - 9.4 1011.4 0.0
23/02:30am SE 4 5 - - - - - - - 9.9 1011.7 0.0
23/02:00am ESE 5 7 - - - - - - - 10.0 1011.9 0.0
23/01:30am E 4 5 - - - - - - - 10.3 1012.5 0.0
23/01:00am ESE 5 6 - - - - - - - 10.2 1012.9 0.0
23/12:30am E 5 6 - - - - - - - 10.0 1013.4 0.0
23/12:00am SE 3 3 - - - - - - - 10.3 1013.9 0.0
 
Date/Time
EDT
Wind Sea
Height
m
Swell Vis
km
Cloud Weather Temp
°C
Press
MSL
hPa
Rain since
9am
mm
Dir  Spd
kts
Gust
kts
Height
m
Period
s
Dir
22/11:30pm SSE 1 2 - - - - - - - 10.6 1014.0 0.0
22/11:00pm SSE 2 3 - - - - - - - 10.0 1014.2 0.0
22/10:30pm SSE 3 3 - - - - - - - 10.1 1014.4 0.0
22/10:00pm SSE 5 6 - - - - - - - 9.8 1014.7 0.0
22/09:30pm SSE 4 6 - - - - - - - 10.7 1014.8 0.0
22/09:00pm S 5 7 - - - - - - - 10.9 1014.9 0.0
22/08:30pm S 8 12 - - - - - - - 11.4 1014.5 0.0
22/08:00pm S 10 13 - - - - - - - 11.7 1014.5 0.0
22/07:30pm S 13 17 - - - - - - - 12.1 1014.5 0.0
22/07:00pm S 13 17 - - - - - - - 12.2 1014.7 0.0
22/06:30pm S 13 17 - - - - - - - 13.0 1014.5 0.0
22/06:00pm S 14 18 - - - - - - - 13.0 1014.4 0.0
22/05:30pm S 14 18 - - - - - - - 13.8 1014.4 0.0
22/05:00pm S 15 18 - - - - - - - 13.4 1014.4 0.0
22/04:30pm S 15 18 - - - - - - - 13.7 1014.8 0.0
22/04:00pm S 15 18 - - - - - - - 13.8 1015.0 0.0
22/03:30pm SSW 17 20 - - - - - - - 13.7 1015.5 0.0
22/03:00pm SSW 17 19 - - - - - - - 14.1 1015.7 0.0
22/02:30pm SSW 16 19 - - - - - - - 14.3 1015.8 0.0
22/02:00pm S 15 18 - - - - - - - 14.4 1015.8 0.0
22/01:30pm SSW 16 18 - - - - - - - 14.1 1015.8 0.0
22/01:00pm SSW 15 18 - - - - - - - 14.1 1016.0 0.0
22/12:30pm SSW 15 16 - - - - - - - 14.1 1016.3 0.0
22/12:00pm SSW 14 16 - - - - - - - 13.9 1016.5 0.0
22/11:30am SSW 12 15 - - - - - - - 14.2 1016.8 0.0
22/11:00am SSW 12 13 - - - - - - - 13.7 1016.9 0.0
22/10:30am SSW 10 12 - - - - - - - 13.7 1017.1 0.0
22/10:00am SSW 9 11 - - - - - - - 12.9 1017.0 0.0
22/09:30am S 3 6 - - - - - - - 13.2 1017.3 0.0
22/09:00am S 7 9 - - - - - - - 12.4 1017.2 0.2
22/08:30am S 7 9 - - - - - - - 11.9 1017.0 0.2
22/08:00am SSE 7 10 - - - - - - - 11.0 1016.9 0.2
22/07:30am SE 5 7 - - - - - - - 10.0 1016.8 0.2
22/07:00am ESE 6 8 - - - - - - - 8.5 1016.6 0.2
22/06:30am ESE 7 7 - - - - - - - 8.2 1016.5 0.2
22/06:00am SE 8 9 - - - - - - - 8.1 1016.2 0.2
22/05:30am SE 7 9 - - - - - - - 8.1 1016.0 0.2
22/05:00am SE 5 6 - - - - - - - 8.1 1016.3 0.2
22/04:30am ESE 8 9 - - - - - - - 8.4 1015.9 0.2
22/04:00am SE 7 8 - - - - - - - 8.3 1016.1 0.2

Other formats

Comma delimited format used in spreadsheet applications
http://www.bom.gov.au/fwo/IDT60701/IDT60701.94974.axf

JavaScript Object Notation format (JSON) in row-major order
http://www.bom.gov.au/fwo/IDT60701/IDT60701.94974.json

Data quality

Most of these data are generated automatically and are frequently updated. Quality checks on data are not normally performed. It is possible for incorrect values to appear. Refer to information at About Latest Weather Observations and please check the disclaimer before using these data.